New Rooks County (RCP)
Stockton, KS
Field Elevation: 1999
Lat: 39°20.80N  Long: 99°18.28W
CTAF/Unicom Freq: 122.9000
   
    
Weather Advisories
2015-05-23   14:51 Z
Altimeter 30.08" Hg
Wind 130° @ 11 KT
Gusts 16 KT
Visibility 10 SM
Temperature 13° C (55° F)
Dewpoint 13° C (55° F)
Relative Humidity 100%
Density Altitude --
Condensation Altitude 2,000 feet
Wind and Runways
Indicated Runway = 18
Headwind = 7 kt
Crosswind = 8 kt
History
 
 
 
More Info
All DigiWx sites map
NOAA Forecast
 
Airport IQ 5010
(FLV) Sherman Airfield
(K68) Garnett Municipal Airport
 
about DigiWx
 
FAA Disclaimer: The data displayed is for advisory purposes only and is not to be used for flight planning or operations. For official data, please call (not available) to hear the current automated AWOS voice message.
  METAR RCP 231451Z AUTO 13011G16KT VIS 10 SM 13/13 A3008